Time;durP1;ratioP1;P1;durP2;ratioP2;P2;SDS_P1;SDS_P2;PMS_P1;PMS_P2;Temp;Humidity;BMP_temperature;BMP_pressure;BME280_temperature;BME280_humidity;BME280_pressure;Samples;Min_cycle;Max_cycle;Signal;HPM_P1;HPM_P2
2023/08/25 00:02:08;;;;;;;6.03;3.80;;;22.80;99.90;;;22.77;69.35;100290.94;5036349;28;20197;-77
2023/08/25 00:04:40;;;;;;;4.27;3.77;;;22.80;99.90;;;22.63;69.52;100284.97;5035889;28;20717;-78
2023/08/25 00:07:12;;;;;;;4.97;3.80;;;22.70;99.90;;;22.51;70.22;100285.03;5035925;28;20561;-77
2023/08/25 00:09:46;;;;;;;6.53;3.73;;;22.60;99.90;;;22.48;69.79;100282.81;5035853;28;20278;-77
2023/08/25 00:12:18;;;;;;;6.07;4.20;;;22.60;99.90;;;22.41;69.92;100273.97;5036173;28;20227;-77
2023/08/25 00:14:50;;;;;;;4.63;3.90;;;22.50;99.90;;;22.40;70.05;100272.31;5035635;28;20230;-77
2023/08/25 00:17:22;;;;;;;6.17;3.47;;;22.50;99.90;;;22.40;70.16;100271.50;5035708;28;20607;-78
2023/08/25 00:19:54;;;;;;;7.20;4.33;;;22.50;99.90;;;22.39;70.17;100265.22;5035864;28;20310;-78
2023/08/25 00:22:25;;;;;;;4.73;3.93;;;22.50;99.90;;;22.39;70.20;100267.97;5035989;28;20602;-78
2023/08/25 00:24:59;;;;;;;5.47;3.63;;;22.50;99.90;;;22.37;70.14;100261.91;5035791;28;20226;-78
2023/08/25 00:27:31;;;;;;;4.50;3.60;;;22.50;99.90;;;22.37;70.38;100248.28;5035592;28;20714;-78
2023/08/25 00:30:03;;;;;;;5.60;3.80;;;22.50;99.90;;;22.27;70.55;100248.13;5035566;28;20279;-77
2023/08/25 00:32:34;;;;;;;5.47;4.00;;;22.40;99.90;;;22.23;70.79;100241.50;5035793;28;20293;-78
2023/08/25 00:35:08;;;;;;;6.17;3.73;;;22.40;99.90;;;22.18;71.06;100241.44;5035679;28;20222;-78
2023/08/25 00:37:39;;;;;;;5.87;3.93;;;22.30;99.90;;;22.19;70.71;100234.91;5035363;28;20286;-78
2023/08/25 00:40:15;;;;;;;5.40;3.53;;;22.30;99.90;;;22.21;70.84;100216.38;5035231;28;20249;-78
2023/08/25 00:42:47;;;;;;;7.03;3.97;;;22.30;99.90;;;22.17;70.82;100207.06;5035570;28;20282;-78
2023/08/25 00:45:19;;;;;;;6.97;3.70;;;22.30;99.90;;;22.17;70.96;100201.59;5035236;28;20294;-78
2023/08/25 00:47:51;;;;;;;5.83;3.90;;;22.30;99.90;;;22.20;70.94;100195.63;5035111;28;20306;-77
2023/08/25 00:50:23;;;;;;;5.43;3.63;;;22.30;99.90;;;22.18;70.95;100195.06;5035493;28;20206;-77
2023/08/25 00:52:56;;;;;;;7.07;3.90;;;22.30;99.90;;;22.14;70.87;100194.75;5035368;28;20282;-78
2023/08/25 00:55:30;;;;;;;5.80;4.00;;;22.30;99.90;;;22.12;71.07;100187.91;5035070;28;20642;-78
2023/08/25 00:58:03;;;;;;;4.93;4.07;;;22.30;99.90;;;22.08;71.45;100192.19;5035050;28;20191;-76
2023/08/25 01:00:35;;;;;;;9.20;4.30;;;22.30;99.90;;;22.02;71.73;100207.63;5035211;28;20305;-76
2023/08/25 01:03:09;;;;;;;5.37;3.83;;;22.20;99.90;;;21.94;71.59;100207.22;5035147;28;20226;-77
2023/08/25 01:05:40;;;;;;;5.83;4.13;;;22.20;99.90;;;21.96;71.73;100205.06;5034901;28;20557;-77
2023/08/25 01:08:12;;;;;;;5.83;4.10;;;22.10;99.90;;;21.98;71.80;100208.38;5035050;28;20201;-78
2023/08/25 01:10:56;;;;;;;6.10;3.57;;;22.10;99.90;;;21.97;71.70;100217.63;5035090;28;20196;-78
2023/08/25 01:13:37;;;;;;;5.40;4.20;;;22.20;99.90;;;21.93;72.18;100216.47;5034937;28;20237;-78
2023/08/25 01:16:16;;;;;;;7.50;4.33;;;22.10;99.90;;;21.95;72.35;100214.34;5034618;28;20657;-78
2023/08/25 01:18:49;;;;;;;6.23;4.33;;;22.20;99.90;;;21.89;72.63;100210.66;5034987;28;20195;-78
2023/08/25 01:21:23;;;;;;;8.17;3.90;;;22.00;99.90;;;21.90;71.97;100203.34;5034494;28;20684;-77
2023/08/25 01:24:09;;;;;;;7.07;4.07;;;22.00;99.90;;;21.97;71.79;100204.00;5034481;28;20803;-77
2023/08/25 01:26:43;;;;;;;5.43;3.97;;;22.10;99.90;;;21.97;72.16;100201.28;5034772;28;20194;-77
2023/08/25 01:29:15;;;;;;;5.47;3.97;;;22.10;99.90;;;21.96;72.12;100195.00;5034737;28;20194;-77
2023/08/25 01:31:47;;;;;;;8.40;4.37;;;22.10;99.90;;;21.93;71.66;100190.03;5034727;28;20282;-77
2023/08/25 01:34:19;;;;;;;7.63;4.00;;;22.10;99.90;;;21.99;71.59;100185.50;5034483;28;20238;-77
2023/08/25 01:37:03;;;;;;;6.90;4.47;;;22.10;99.90;;;21.97;71.31;100180.31;5034542;28;20190;-77
2023/08/25 01:39:38;;;;;;;8.80;4.00;;;22.20;99.90;;;21.94;71.83;100179.97;5034572;28;20329;-77
2023/08/25 01:42:15;;;;;;;5.37;3.97;;;22.10;99.90;;;21.92;71.69;100172.03;5034428;28;20254;-77
2023/08/25 01:44:50;;;;;;;10.50;4.50;;;22.10;99.90;;;21.93;71.56;100167.41;5034361;28;20321;-77
2023/08/25 01:47:27;;;;;;;7.83;3.97;;;22.00;99.90;;;21.92;71.39;100168.50;5033994;28;20714;-77
2023/08/25 01:50:00;;;;;;;6.50;4.10;;;22.10;99.90;;;21.93;71.45;100167.41;5033996;28;20230;-77
2023/08/25 01:52:33;;;;;;;8.47;4.23;;;22.10;99.90;;;21.88;71.75;100161.84;5034158;28;20282;-78
2023/08/25 01:55:05;;;;;;;9.17;3.77;;;22.10;99.90;;;21.86;71.19;100155.81;5033789;28;20227;-78
2023/08/25 01:57:38;;;;;;;5.40;4.00;;;22.10;99.90;;;21.89;70.95;100158.88;5034218;28;20282;-77
2023/08/25 02:00:11;;;;;;;8.53;3.90;;;22.00;99.90;;;21.83;71.10;100165.31;5033771;28;20649;-77
2023/08/25 02:02:42;;;;;;;5.63;3.60;;;22.00;99.90;;;21.86;71.09;100164.81;5034142;28;20226;-78
2023/08/25 02:05:14;;;;;;;5.33;3.60;;;22.10;99.90;;;21.89;71.42;100160.75;5033734;28;20234;-78
2023/08/25 02:07:46;;;;;;;6.47;3.70;;;22.10;99.90;;;21.89;71.57;100171.66;5034076;28;20195;-77
2023/08/25 02:10:18;;;;;;;4.87;3.63;;;22.10;99.90;;;21.86;71.35;100177.63;5034018;28;20186;-77
2023/08/25 02:12:51;;;;;;;7.63;3.97;;;22.10;99.90;;;21.89;71.38;100174.38;5033918;28;20282;-77
2023/08/25 02:15:23;;;;;;;6.40;3.50;;;22.00;99.90;;;21.90;71.81;100170.63;5033883;28;20249;-77
2023/08/25 02:17:55;;;;;;;8.17;3.90;;;22.10;99.90;;;21.86;71.40;100153.91;5033762;28;20210;-78
2023/08/25 02:20:28;;;;;;;4.63;3.53;;;22.10;99.90;;;21.84;71.44;100160.69;5033439;28;20638;-78
2023/08/25 02:23:00;;;;;;;5.10;4.23;;;22.00;99.90;;;21.81;71.61;100163.91;5033768;28;20229;-77
2023/08/25 02:25:32;;;;;;;6.00;3.57;;;22.00;99.90;;;21.72;71.56;100161.59;5033753;28;20187;-78
2023/08/25 02:28:06;;;;;;;4.97;3.43;;;21.90;99.90;;;21.69;71.68;100153.09;5033716;28;20226;-77
2023/08/25 02:30:39;;;;;;;7.87;4.17;;;21.80;99.90;;;21.68;71.87;100152.25;5033955;28;20282;-78
2023/08/25 02:33:11;;;;;;;4.77;3.40;;;21.80;99.90;;;21.66;71.82;100157.13;5033857;28;20265;-77
2023/08/25 02:35:43;;;;;;;4.83;3.80;;;21.80;99.90;;;21.69;72.12;100167.53;5033493;28;20270;-77
2023/08/25 02:38:15;;;;;;;4.77;3.30;;;21.90;99.90;;;21.75;71.37;100165.72;5033232;28;20667;-77
2023/08/25 02:40:47;;;;;;;3.77;3.33;;;22.00;99.90;;;21.77;71.43;100157.31;5033461;28;20217;-68
2023/08/25 02:43:20;;;;;;;4.30;3.33;;;22.00;99.90;;;21.76;71.52;100161.94;5033160;28;20801;-75
2023/08/25 02:45:52;;;;;;;6.10;3.53;;;21.90;99.90;;;21.76;71.06;100159.19;5033359;28;20221;-75
2023/08/25 02:48:24;;;;;;;9.50;3.93;;;21.90;99.90;;;21.73;71.25;100152.34;5034031;28;20199;-74
2023/08/25 02:50:56;;;;;;;7.63;3.87;;;21.90;99.90;;;21.74;71.52;100147.75;5035674;28;20298;-74
2023/08/25 02:53:28;;;;;;;7.00;4.07;;;21.90;99.90;;;21.72;71.75;100150.69;5033341;28;20227;-75
2023/08/25 02:55:59;;;;;;;4.30;3.90;;;21.90;99.90;;;21.69;71.77;100144.91;5033093;28;20641;-75
2023/08/25 02:58:32;;;;;;;5.70;3.80;;;21.80;99.90;;;21.61;71.91;100137.97;5033383;28;20289;-75
2023/08/25 03:01:13;;;;;;;6.83;4.00;;;21.80;99.90;;;21.59;72.42;100139.28;5033091;28;20688;-75
2023/08/25 03:03:45;;;;;;;5.60;3.67;;;21.70;99.90;;;21.59;72.35;100142.84;5037316;28;20222;-75
2023/08/25 03:06:17;;;;;;;5.90;3.90;;;21.80;99.90;;;21.57;72.78;100147.72;5037432;28;20223;-75
2023/08/25 03:08:49;;;;;;;7.40;4.00;;;21.80;99.90;;;21.49;72.42;100144.56;5037323;28;20274;-75
2023/08/25 03:11:20;;;;;;;6.57;3.97;;;21.70;99.90;;;21.45;72.91;100146.97;5037232;28;20296;-75
2023/08/25 03:13:53;;;;;;;7.07;4.43;;;21.60;99.90;;;21.44;73.05;100145.28;5037192;28;20273;-76
2023/08/25 03:16:25;;;;;;;8.27;4.30;;;21.60;99.90;;;21.39;72.86;100138.94;5037202;28;20281;-76
2023/08/25 03:18:57;;;;;;;5.53;3.90;;;21.50;99.90;;;21.40;72.72;100146.88;5037145;28;20218;-76
2023/08/25 03:21:29;;;;;;;4.83;3.97;;;21.50;99.90;;;21.39;72.83;100156.13;5036925;28;20276;-76
2023/08/25 03:24:01;;;;;;;6.97;3.77;;;21.50;99.90;;;21.34;72.78;100152.47;5036950;28;20309;-76
2023/08/25 03:26:33;;;;;;;6.90;4.40;;;21.50;99.90;;;21.27;73.01;100160.78;5036937;28;20290;-76
2023/08/25 03:29:06;;;;;;;5.90;4.13;;;21.40;99.90;;;21.28;72.50;100148.81;5036935;28;20215;-76
2023/08/25 03:31:38;;;;;;;6.07;4.10;;;21.50;99.90;;;21.20;73.59;100151.94;5036913;28;20253;-76
2023/08/25 03:34:10;;;;;;;6.73;4.47;;;21.40;99.90;;;21.15;73.23;100143.69;5036736;28;20227;-76
2023/08/25 03:36:42;;;;;;;7.73;4.40;;;21.30;99.90;;;21.17;73.30;100157.88;5036779;28;20195;-76
2023/08/25 03:39:14;;;;;;;5.40;4.43;;;21.30;99.90;;;21.17;73.27;100158.69;5036423;28;20191;-76
2023/08/25 03:41:46;;;;;;;7.27;4.10;;;21.40;99.90;;;21.13;73.27;100162.16;5036326;28;20756;-76
2023/08/25 03:44:19;;;;;;;6.93;4.30;;;21.30;99.90;;;21.09;73.97;100163.69;5036624;28;20377;-76
2023/08/25 03:46:51;;;;;;;5.17;4.00;;;21.20;99.90;;;21.00;74.26;100157.78;5036332;28;20225;-76
2023/08/25 03:49:28;;;;;;;5.33;4.13;;;21.20;99.90;;;21.00;73.63;100162.41;5036427;28;20187;-76
2023/08/25 03:51:59;;;;;;;6.40;4.43;;;21.20;99.90;;;20.92;73.99;100162.81;5036196;28;20244;-76
2023/08/25 03:54:32;;;;;;;5.30;4.30;;;21.10;99.90;;;20.94;74.38;100157.94;5036340;28;20227;-76
2023/08/25 03:57:08;;;;;;;6.67;4.07;;;21.10;99.90;;;20.94;73.96;100157.94;5036446;28;20197;-76
2023/08/25 03:59:42;;;;;;;6.40;4.40;;;21.10;99.90;;;20.88;74.18;100159.72;5036325;28;20191;-76
2023/08/25 04:02:13;;;;;;;5.90;4.40;;;21.00;99.90;;;20.85;74.41;100162.13;5035919;28;20792;-76
2023/08/25 04:04:45;;;;;;;5.47;4.20;;;21.00;99.90;;;20.82;74.30;100159.88;5035674;28;20724;-76
2023/08/25 04:07:17;;;;;;;5.00;4.03;;;21.00;99.90;;;20.83;74.42;100156.06;5035919;28;20282;-76
2023/08/25 04:09:49;;;;;;;5.67;4.40;;;21.00;99.90;;;20.73;75.31;100156.69;5036469;28;20193;-76
2023/08/25 04:12:21;;;;;;;7.37;4.27;;;20.90;99.90;;;20.66;75.87;100162.25;5036285;28;20266;-75
2023/08/25 04:14:54;;;;;;;5.57;4.17;;;20.80;99.90;;;20.61;76.18;100159.47;5035143;28;20788;-75
2023/08/25 04:17:29;;;;;;;6.47;4.20;;;20.70;99.90;;;20.61;76.13;100162.19;5035454;28;20281;-75
2023/08/25 04:20:03;;;;;;;7.17;4.57;;;20.70;99.90;;;20.57;75.89;100161.00;5035316;28;20190;-76
2023/08/25 04:22:34;;;;;;;5.20;4.00;;;20.70;99.90;;;20.46;75.83;100161.84;5035642;28;20310;-76
2023/08/25 04:25:07;;;;;;;7.80;4.20;;;20.60;99.90;;;20.52;75.87;100158.16;5035560;28;20329;-70
2023/08/25 04:27:39;;;;;;;6.77;4.50;;;20.70;99.90;;;20.52;75.81;100155.44;5035148;28;20282;-71
2023/08/25 04:30:13;;;;;;;6.20;4.47;;;20.70;99.90;;;20.54;75.68;100160.66;5035316;28;20282;-71
2023/08/25 04:32:45;;;;;;;9.73;4.90;;;20.70;99.90;;;20.51;75.58;100159.25;5035385;28;20640;-71
2023/08/25 04:35:17;;;;;;;6.87;4.50;;;20.70;99.90;;;20.45;76.01;100162.06;5035615;28;20256;-71
2023/08/25 04:37:50;;;;;;;5.90;4.17;;;20.60;99.90;;;20.40;76.50;100151.09;5035204;28;20665;-71
2023/08/25 04:40:24;;;;;;;7.77;4.60;;;20.50;99.90;;;20.38;76.66;100148.59;5035512;28;20198;-71
2023/08/25 04:42:56;;;;;;;6.23;4.10;;;20.50;99.90;;;20.35;76.69;100143.63;5035323;28;20258;-71
2023/08/25 04:45:29;;;;;;;7.20;4.40;;;20.50;99.90;;;20.28;76.41;100142.94;5035152;28;20638;-71
2023/08/25 04:48:01;;;;;;;6.07;4.87;;;20.40;99.90;;;20.23;76.56;100150.97;5035436;28;20201;-71
2023/08/25 04:50:33;;;;;;;8.53;4.60;;;20.40;99.90;;;20.23;76.97;100140.09;5035094;28;20642;-71
2023/08/25 04:53:05;;;;;;;6.93;4.47;;;20.40;99.90;;;20.24;77.53;100144.44;5034919;28;20267;-71
2023/08/25 04:55:36;;;;;;;6.20;4.43;;;20.40;99.90;;;20.25;76.51;100144.22;5035228;28;20211;-71
2023/08/25 04:58:08;;;;;;;5.93;4.47;;;20.50;99.90;;;20.20;77.35;100137.84;5034942;28;20191;-71
2023/08/25 05:00:41;;;;;;;6.03;4.10;;;20.40;99.90;;;20.20;77.45;100140.56;5035174;28;20275;-71
2023/08/25 05:03:13;;;;;;;7.63;4.57;;;20.40;99.90;;;20.14;77.17;100136.06;5034981;28;20230;-75
2023/08/25 05:05:45;;;;;;;7.07;4.43;;;20.40;99.90;;;20.17;77.63;100151.91;5035153;28;20293;-75
2023/08/25 05:08:19;;;;;;;7.47;4.70;;;20.30;99.90;;;20.18;77.81;100142.66;5035078;28;20191;-75
2023/08/25 05:10:51;;;;;;;9.73;5.23;;;20.40;99.90;;;20.11;78.64;100148.22;5035066;28;20191;-75
2023/08/25 05:13:23;;;;;;;13.03;4.60;;;20.30;99.90;;;20.14;77.99;100139.59;5034963;28;20281;-75
2023/08/25 05:15:56;;;;;;;9.33;4.73;;;20.40;99.90;;;20.18;77.72;100148.09;5034653;28;20714;-75
2023/08/25 05:18:28;;;;;;;10.13;5.47;;;20.40;99.90;;;20.20;77.89;100152.25;5034963;28;20286;-75
2023/08/25 05:21:01;;;;;;;21.93;14.63;;;20.40;99.90;;;20.22;77.87;100149.28;5034607;28;20278;-75
2023/08/25 05:23:33;;;;;;;14.37;8.37;;;20.50;99.90;;;20.25;78.38;100146.09;5034674;28;20258;-75
2023/08/25 05:26:06;;;;;;;19.57;11.30;;;20.50;99.90;;;20.27;78.20;100146.72;5033807;28;20230;-75
2023/08/25 05:28:38;;;;;;;19.10;13.83;;;20.50;99.90;;;20.28;78.61;100152.97;5034399;28;20197;-75
2023/08/25 05:31:11;;;;;;;23.63;15.80;;;20.50;99.90;;;20.27;77.90;100162.19;5034622;28;20199;-75
2023/08/25 05:33:43;;;;;;;18.70;14.17;;;20.50;99.90;;;20.29;78.23;100155.47;5034267;28;20767;-75
2023/08/25 05:36:15;;;;;;;15.57;10.37;;;20.50;99.90;;;20.30;78.50;100161.75;5034481;28;20207;-75
2023/08/25 05:38:47;;;;;;;13.40;9.07;;;20.60;99.90;;;20.32;78.37;100157.72;5034213;28;20237;-75
2023/08/25 05:41:19;;;;;;;15.17;9.37;;;20.60;99.90;;;20.34;78.38;100165.63;5034534;28;20281;-76
2023/08/25 05:43:51;;;;;;;8.93;6.77;;;20.60;99.90;;;20.34;78.68;100158.31;5034256;28;20666;-76
2023/08/25 05:46:24;;;;;;;9.30;4.90;;;20.60;99.90;;;20.35;78.21;100164.56;5034124;28;20221;-76
2023/08/25 05:48:56;;;;;;;12.07;5.10;;;20.60;99.90;;;20.38;78.18;100159.47;5034348;28;20191;-76
2023/08/25 05:51:30;;;;;;;8.07;4.00;;;20.60;99.90;;;20.39;77.65;100161.13;5034282;28;20198;-76
2023/08/25 05:54:02;;;;;;;7.27;4.20;;;20.70;99.90;;;20.40;77.54;100165.50;5034175;28;20230;-76
2023/08/25 05:56:33;;;;;;;8.53;4.10;;;20.70;99.90;;;20.43;78.57;100167.75;5033935;28;20598;-76
2023/08/25 05:59:06;;;;;;;8.00;4.23;;;20.80;99.90;;;20.46;77.58;100167.28;5034137;28;20277;-76
2023/08/25 06:01:40;;;;;;;8.33;4.60;;;20.80;99.90;;;20.48;77.52;100175.22;5034139;28;20195;-77
2023/08/25 06:04:12;;;;;;;9.90;4.10;;;20.80;99.90;;;20.49;76.78;100174.94;5033947;28;20320;-77
2023/08/25 06:06:44;;;;;;;11.73;4.23;;;20.80;99.90;;;20.52;76.43;100176.34;5033996;28;20214;-76
2023/08/25 06:09:17;;;;;;;7.83;4.20;;;20.90;99.90;;;20.54;76.25;100179.69;5033998;28;20277;-76
2023/08/25 06:11:49;;;;;;;9.83;4.03;;;20.90;99.90;;;20.56;76.71;100177.53;5034517;28;20192;-76
2023/08/25 06:14:22;;;;;;;6.53;3.77;;;20.90;99.90;;;20.57;76.89;100174.59;5033872;28;20257;-76
2023/08/25 06:16:58;;;;;;;6.10;3.80;;;20.90;99.90;;;20.59;78.44;100182.50;5033868;28;20191;-76
2023/08/25 06:19:30;;;;;;;6.50;3.83;;;20.90;99.90;;;20.61;77.79;100185.81;5033825;28;20222;-76
2023/08/25 06:22:02;;;;;;;8.00;3.70;;;21.00;99.90;;;20.63;77.15;100189.94;5033884;28;20195;-76
2023/08/25 06:24:35;;;;;;;12.60;4.43;;;21.00;99.90;;;20.67;76.80;100182.13;5033300;28;20237;-76
2023/08/25 06:27:07;;;;;;;9.00;3.77;;;21.00;99.90;;;20.69;76.34;100189.00;5033391;28;20286;-76
2023/08/25 06:29:39;;;;;;;11.77;4.17;;;21.10;99.90;;;20.74;76.40;100186.38;5033429;28;20230;-76
2023/08/25 06:32:13;;;;;;;7.60;3.50;;;21.10;99.90;;;20.78;76.31;100194.91;5033669;28;20195;-76
2023/08/25 06:34:48;;;;;;;5.53;3.10;;;21.20;99.90;;;20.79;76.93;100190.28;5033543;28;20313;-76
2023/08/25 06:37:20;;;;;;;6.80;3.40;;;21.20;99.90;;;20.82;76.57;100187.09;5033027;28;20190;-76
2023/08/25 06:39:52;;;;;;;6.47;3.60;;;21.20;99.90;;;20.87;76.73;100184.44;5033571;28;20203;-76
2023/08/25 06:42:24;;;;;;;6.47;3.47;;;21.20;99.90;;;20.87;75.96;100182.56;5033212;28;20624;-76
2023/08/25 06:44:56;;;;;;;5.20;3.50;;;21.30;99.90;;;20.90;75.36;100173.09;5033371;28;20266;-76
2023/08/25 06:47:30;;;;;;;6.63;3.50;;;21.30;99.90;;;20.91;77.20;100169.31;5033173;28;20225;-76
2023/08/25 06:50:02;;;;;;;5.50;3.77;;;21.30;99.90;;;20.95;76.30;100159.59;5033453;28;20282;-76
2023/08/25 06:52:36;;;;;;;4.50;3.10;;;21.40;99.90;;;20.97;77.00;100149.28;5033724;28;20199;-76
2023/08/25 06:55:11;;;;;;;7.83;3.70;;;21.40;99.90;;;20.99;76.66;100153.44;5034446;28;20234;-76
2023/08/25 06:57:43;;;;;;;5.27;3.30;;;21.40;99.90;;;21.08;75.85;100145.69;5033407;28;20277;-76
2023/08/25 07:00:17;;;;;;;6.10;3.60;;;21.50;99.90;;;21.13;76.04;100151.28;5033354;28;20291;-76
2023/08/25 07:02:50;;;;;;;6.43;3.73;;;21.50;99.90;;;21.17;75.72;100163.31;5033151;28;20190;-76
2023/08/25 07:05:23;;;;;;;7.70;4.17;;;21.60;99.90;;;21.18;77.20;100167.69;5033270;28;20198;-76
2023/08/25 07:07:55;;;;;;;5.67;4.07;;;21.60;99.90;;;21.22;75.60;100160.69;5033031;28;20680;-77
2023/08/25 07:10:27;;;;;;;7.27;3.80;;;21.60;99.90;;;21.27;75.10;100162.69;5032952;28;20222;-76
2023/08/25 07:12:59;;;;;;;7.63;4.37;;;21.70;99.90;;;21.33;75.00;100159.81;5033134;28;20191;-76
2023/08/25 07:15:31;;;;;;;7.33;3.67;;;21.70;99.90;;;21.37;75.50;100149.28;5033233;28;20291;-76
2023/08/25 07:18:05;;;;;;;6.07;3.73;;;21.80;99.90;;;21.36;75.11;100147.59;5033226;28;20273;-76
2023/08/25 07:20:37;;;;;;;8.30;4.20;;;21.80;99.90;;;21.37;77.71;100131.00;5033201;28;20295;-76
2023/08/25 07:23:09;;;;;;;9.23;5.10;;;21.80;99.90;;;21.37;76.01;100125.56;5032945;28;20257;-76
2023/08/25 07:25:43;;;;;;;10.30;4.83;;;21.80;99.90;;;21.40;76.47;100122.38;5033094;28;20230;-76
2023/08/25 07:28:17;;;;;;;8.23;4.80;;;21.70;99.90;;;21.46;75.52;100121.38;5032793;28;20199;-77
2023/08/25 07:30:51;;;;;;;12.43;6.23;;;21.90;99.90;;;21.52;75.75;100119.56;5033097;28;20274;-77
2023/08/25 07:33:24;;;;;;;8.17;6.47;;;21.90;99.90;;;21.56;76.04;100124.28;5032976;28;20254;-77
2023/08/25 07:35:56;;;;;;;10.40;6.67;;;22.00;99.90;;;21.54;76.10;100122.88;5032751;28;20195;-77
2023/08/25 07:38:27;;;;;;;8.70;5.60;;;21.90;99.90;;;21.55;76.39;100117.16;5032895;28;20302;-77
2023/08/25 07:41:00;;;;;;;7.33;4.37;;;22.00;99.90;;;21.62;76.65;100128.72;5033467;28;20697;-77
2023/08/25 07:43:32;;;;;;;7.20;4.60;;;22.00;99.90;;;21.71;75.47;100143.59;5032806;28;20669;-77
2023/08/25 07:46:04;;;;;;;8.53;5.50;;;22.10;99.90;;;21.74;75.15;100153.19;5033820;28;20225;-76
2023/08/25 07:48:38;;;;;;;8.10;5.00;;;22.20;99.90;;;21.77;74.74;100162.75;5034135;28;20302;-76
2023/08/25 07:51:10;;;;;;;9.10;5.00;;;22.20;99.90;;;21.83;74.23;100161.75;5036256;28;20644;-76
2023/08/25 07:53:42;;;;;;;7.90;4.77;;;22.20;99.90;;;21.85;75.07;100165.09;5036948;28;20321;-76
2023/08/25 07:56:14;;;;;;;8.80;4.30;;;22.30;99.90;;;21.86;75.81;100155.81;5036485;28;20221;-76
2023/08/25 07:58:46;;;;;;;7.67;3.87;;;22.30;99.90;;;21.97;73.97;100168.56;5036396;28;20206;-76
2023/08/25 08:01:17;;;;;;;4.40;3.90;;;22.40;99.90;;;22.01;73.16;100172.44;5036342;28;20290;-76
2023/08/25 08:03:51;;;;;;;4.80;3.43;;;22.40;99.90;;;22.07;72.45;100185.06;5036199;28;20234;-76
2023/08/25 08:06:23;;;;;;;5.77;3.93;;;22.50;99.90;;;22.12;72.75;100193.34;5036294;28;20195;-76
2023/08/25 08:08:56;;;;;;;4.30;3.90;;;22.50;99.90;;;22.23;72.38;100197.88;5036247;28;20241;-76
2023/08/25 08:11:27;;;;;;;7.67;3.90;;;22.60;99.90;;;22.30;71.41;100190.34;5035884;28;20234;-77
2023/08/25 08:13:59;;;;;;;5.93;3.83;;;22.70;99.90;;;22.31;72.45;100189.28;5036035;28;20310;-77
2023/08/25 08:16:32;;;;;;;7.97;3.57;;;22.70;99.90;;;22.40;71.69;100189.69;5036928;28;20199;-77
2023/08/25 08:19:10;;;;;;;5.43;3.50;;;22.80;99.90;;;22.43;72.85;100179.06;5036028;28;20577;-77
2023/08/25 08:21:42;;;;;;;5.97;3.37;;;22.80;99.90;;;22.61;72.06;100186.97;5036057;28;20628;-77
2023/08/25 08:24:14;;;;;;;5.07;3.60;;;23.10;99.90;;;22.74;70.67;100194.81;5035525;28;20230;-77
2023/08/25 08:26:46;;;;;;;8.90;3.50;;;23.20;99.90;;;22.81;71.04;100191.09;5035596;28;20245;-77
2023/08/25 08:29:18;;;;;;;6.90;3.57;;;23.20;99.90;;;22.92;69.65;100185.50;5035841;28;20191;-77
2023/08/25 08:31:50;;;;;;;6.20;3.30;;;23.30;99.90;;;22.97;72.02;100179.28;5035772;28;20287;-77
2023/08/25 08:34:23;;;;;;;6.47;3.40;;;23.40;99.90;;;23.07;69.96;100179.41;5035695;28;20254;-77
2023/08/25 08:36:55;;;;;;;6.93;3.70;;;23.40;99.90;;;23.04;70.09;100174.44;5035735;28;20281;-77
2023/08/25 08:39:28;;;;;;;3.97;3.37;;;23.50;99.90;;;23.09;69.50;100182.69;5035681;28;20274;-77
2023/08/25 08:42:01;;;;;;;6.10;3.10;;;23.50;99.90;;;23.08;69.66;100187.31;5035603;28;20225;-77
2023/08/25 08:44:37;;;;;;;5.33;3.27;;;23.50;99.90;;;23.09;71.04;100183.50;5035550;28;20656;-75
2023/08/25 08:47:10;;;;;;;4.83;3.33;;;23.50;99.90;;;23.16;69.26;100166.94;5035252;28;20210;-75
2023/08/25 08:49:46;;;;;;;4.20;2.90;;;23.60;99.90;;;23.20;69.23;100168.06;5035523;28;20622;-75
2023/08/25 08:52:18;;;;;;;8.40;3.20;;;23.60;99.90;;;23.27;67.76;100174.16;5035501;28;20191;-75
2023/08/25 08:54:50;;;;;;;4.93;3.37;;;23.60;99.90;;;23.32;67.67;100181.59;5034992;28;20594;-75
2023/08/25 08:57:22;;;;;;;3.30;3.00;;;23.70;99.90;;;23.34;68.85;100179.41;5035421;28;20286;-75
2023/08/25 08:59:58;;;;;;;6.83;3.53;;;23.70;99.90;;;23.36;67.52;100194.47;5035229;28;20213;-75
2023/08/25 09:02:35;;;;;;;5.47;3.23;;;23.70;99.90;;;23.37;67.43;100187.09;5034991;28;20643;-75
2023/08/25 09:05:11;;;;;;;4.27;2.80;;;23.70;99.90;;;23.37;69.28;100185.19;5034762;28;20680;-75
2023/08/25 09:07:47;;;;;;;6.30;3.10;;;23.70;99.90;;;23.38;68.94;100178.66;5034873;28;20186;-76
2023/08/25 09:10:18;;;;;;;4.30;2.70;;;23.70;99.90;;;23.51;66.73;100197.38;5035098;28;20241;-76
2023/08/25 09:12:50;;;;;;;6.17;3.30;;;23.90;99.90;;;23.54;67.12;100202.34;5035441;28;20214;-76
2023/08/25 09:15:30;;;;;;;5.03;2.97;;;23.90;99.90;;;23.58;66.44;100198.00;5035101;28;20222;-76
2023/08/25 09:18:07;;;;;;;4.07;2.67;;;23.90;99.90;;;23.66;67.34;100200.25;5034688;28;20648;-76
2023/08/25 09:20:42;;;;;;;4.63;2.60;;;24.00;99.90;;;23.84;65.43;100203.69;5034945;28;20629;-76
2023/08/25 09:23:13;;;;;;;4.90;2.60;;;24.20;99.70;;;23.91;65.63;100205.13;5034852;28;20227;-76
2023/08/25 09:25:46;;;;;;;7.00;3.40;;;24.30;99.80;;;23.94;64.18;100212.81;5034750;28;20318;-76
2023/08/25 09:28:20;;;;;;;6.67;3.33;;;24.30;99.10;;;23.90;64.31;100210.88;5034761;28;20249;-76
2023/08/25 09:30:51;;;;;;;5.27;2.80;;;24.20;99.10;;;23.92;64.52;100211.44;5034742;28;20229;-76
2023/08/25 09:33:24;;;;;;;4.57;2.70;;;24.30;99.30;;;23.98;65.57;100213.13;5034283;28;20314;-76
2023/08/25 09:36:02;;;;;;;8.47;3.70;;;24.30;99.80;;;24.03;64.74;100215.91;5034659;28;20290;-76
2023/08/25 09:38:35;;;;;;;4.20;3.27;;;24.20;99.30;;;24.06;64.94;100215.38;5034573;28;20195;-76
2023/08/25 09:41:28;;;;;;;4.50;2.90;;;24.40;99.40;;;24.21;64.92;100212.81;5034579;28;20191;-76
2023/08/25 09:44:01;;;;;;;5.97;2.90;;;24.50;99.30;;;24.22;64.54;100209.78;5034146;28;20769;-76
2023/08/25 09:46:36;;;;;;;5.33;3.00;;;24.50;99.10;;;24.23;63.24;100222.41;5034150;28;20238;-76
2023/08/25 09:49:10;;;;;;;4.13;2.97;;;24.50;98.50;;;24.28;63.69;100227.09;5034374;28;20186;-76
2023/08/25 09:51:45;;;;;;;8.97;3.30;;;24.60;99.00;;;24.27;62.92;100228.16;5034813;28;20286;-76
2023/08/25 09:54:19;;;;;;;5.97;3.23;;;24.60;98.40;;;24.20;63.04;100235.78;5033907;28;20605;-76
2023/08/25 09:56:52;;;;;;;3.60;2.90;;;24.50;98.30;;;24.25;63.67;100245.94;5034235;28;20350;-76
2023/08/25 09:59:24;;;;;;;4.30;3.03;;;24.50;98.80;;;24.26;63.63;100253.88;5034236;28;20274;-76
2023/08/25 10:01:57;;;;;;;5.43;3.20;;;24.60;98.70;;;24.29;62.95;100250.59;5033814;28;20278;-76
2023/08/25 10:04:29;;;;;;;8.27;3.57;;;24.60;98.40;;;24.27;63.35;100252.78;5033654;28;20226;-76
2023/08/25 10:07:05;;;;;;;5.10;3.27;;;24.50;98.60;;;24.32;63.67;100258.28;5034060;28;20231;-76
2023/08/25 10:09:37;;;;;;;4.80;3.00;;;24.60;98.60;;;24.35;63.31;100263.22;5033995;28;20194;-76
2023/08/25 10:12:12;;;;;;;5.70;3.20;;;24.60;98.50;;;24.35;62.97;100282.38;5033501;28;20215;-76
2023/08/25 10:14:51;;;;;;;4.97;3.37;;;24.70;98.20;;;24.35;64.10;100284.31;5033745;28;20250;-76
2023/08/25 10:17:25;;;;;;;6.10;3.73;;;24.60;98.70;;;24.29;63.80;100280.69;5033579;28;20621;-76
2023/08/25 10:20:04;;;;;;;6.27;3.40;;;24.50;98.70;;;24.21;63.86;100273.00;5033884;28;20203;-76
2023/08/25 10:22:41;;;;;;;5.03;3.63;;;24.50;98.70;;;24.17;63.94;100267.22;5033814;28;20203;-76
2023/08/25 10:25:16;;;;;;;5.97;3.83;;;24.40;98.80;;;24.17;64.00;100274.59;5033753;28;20308;-76
2023/08/25 10:27:48;;;;;;;7.53;3.73;;;24.40;98.80;;;24.16;63.96;100268.28;5033459;28;20683;-76
2023/08/25 10:30:21;;;;;;;10.80;3.77;;;24.40;98.90;;;24.14;63.98;100269.66;5033325;28;20191;-76
2023/08/25 10:32:51;;;;;;;5.40;3.93;;;24.40;98.90;;;24.09;64.04;100259.44;5033305;28;20202;-76
2023/08/25 10:35:40;;;;;;;7.00;3.53;;;24.30;98.70;;;24.09;63.97;100253.97;5034137;28;20214;-75
2023/08/25 10:38:39;;;;;;;7.27;3.83;;;24.30;98.50;;;24.08;65.86;100246.84;5034665;28;20277;-75